createdAt,value
2019-04-07T00:01:52.645Z,10.04
2019-04-07T00:04:22.511Z,10.33
2019-04-07T00:06:52.274Z,10.53
2019-04-07T00:09:22.272Z,10.24
2019-04-07T00:11:52.105Z,10.22
2019-04-07T00:14:21.775Z,10.25
2019-04-07T00:16:51.807Z,10.12
2019-04-07T00:19:21.914Z,10.10
2019-04-07T00:21:51.712Z,9.92
2019-04-07T00:24:21.886Z,9.81
2019-04-07T00:26:52.587Z,9.52
2019-04-07T00:29:22.816Z,9.49
2019-04-07T00:31:52.567Z,9.80
2019-04-07T00:34:22.268Z,9.78
2019-04-07T00:36:52.188Z,9.76
2019-04-07T00:39:21.726Z,9.66
2019-04-07T00:41:51.966Z,9.47
2019-04-07T00:44:21.616Z,9.80
2019-04-07T00:46:51.197Z,9.80
2019-04-07T00:49:20.704Z,9.53
2019-04-07T00:51:51.613Z,9.34
2019-04-07T00:54:21.489Z,9.42
2019-04-07T00:56:51.181Z,9.23
2019-04-07T00:59:21.968Z,9.25
2019-04-07T01:01:51.585Z,9.28
2019-04-07T01:04:22.156Z,9.59
2019-04-07T01:06:52.927Z,9.58
2019-04-07T01:09:22.533Z,9.32
2019-04-07T01:11:52.423Z,9.21
2019-04-07T01:14:23.629Z,9.26
2019-04-07T01:16:53.158Z,9.51
2019-04-07T01:19:22.780Z,9.41
2019-04-07T01:21:52.162Z,9.40
2019-04-07T01:24:22.606Z,9.39
2019-04-07T01:26:52.562Z,9.20
2019-04-07T01:29:22.115Z,9.14
2019-04-07T01:31:51.813Z,9.25
2019-04-07T01:34:21.544Z,9.27
2019-04-07T01:36:51.033Z,9.25
2019-04-07T01:39:22.041Z,9.27
2019-04-07T01:41:59.554Z,9.30
2019-04-07T01:44:30.967Z,9.15
2019-04-07T01:47:11.349Z,9.16
2019-04-07T01:49:48.935Z,9.18
2019-04-07T01:52:21.096Z,9.10
2019-04-07T01:54:58.282Z,9.45
2019-04-07T01:57:35.650Z,8.93
2019-04-07T02:00:11.290Z,9.20
2019-04-07T02:02:45.569Z,8.69
2019-04-07T02:05:25.345Z,8.72
2019-04-07T02:08:12.007Z,8.61
2019-04-07T02:10:46.084Z,8.41
2019-04-07T02:13:33.892Z,8.76
2019-04-07T02:16:05.337Z,8.72
2019-04-07T02:18:51.296Z,8.61
2019-04-07T02:21:31.598Z,8.92
2019-04-07T02:24:02.744Z,8.52
2019-04-07T02:26:36.892Z,8.60
2019-04-07T02:29:25.563Z,8.69
2019-04-07T02:32:03.608Z,8.52
2019-04-07T02:34:47.361Z,8.43
2019-04-07T02:37:19.298Z,8.71
2019-04-07T02:39:53.336Z,8.73
2019-04-07T02:42:25.058Z,8.75
2019-04-07T02:44:57.343Z,8.59
2019-04-07T02:47:41.884Z,8.68
2019-04-07T02:50:15.493Z,8.77
2019-04-07T02:52:47.373Z,8.60
2019-04-07T02:55:35.619Z,8.72
2019-04-07T02:58:07.794Z,8.73
2019-04-07T03:00:41.879Z,8.75
2019-04-07T03:03:14.055Z,8.86
2019-04-07T03:05:48.518Z,9.09
2019-04-07T03:08:35.601Z,8.86
2019-04-07T03:11:12.266Z,8.59
2019-04-07T03:13:52.499Z,8.51
2019-04-07T03:16:26.681Z,8.68
2019-04-07T03:19:15.123Z,8.69
2019-04-07T03:21:55.598Z,8.86
2019-04-07T03:24:33.566Z,8.62
2019-04-07T03:27:08.028Z,8.43
2019-04-07T03:29:41.952Z,8.26
2019-04-07T03:32:25.869Z,8.12
2019-04-07T03:35:16.027Z,8.18
2019-04-07T03:37:53.216Z,7.99
2019-04-07T03:40:24.563Z,8.09
2019-04-07T03:42:59.177Z,8.15
2019-04-07T03:45:44.038Z,8.17
2019-04-07T03:48:15.798Z,8.21
2019-04-07T03:50:46.961Z,8.07
2019-04-07T03:53:34.404Z,8.01
2019-04-07T03:56:08.481Z,8.11
2019-04-07T03:58:56.005Z,8.22
2019-04-07T04:01:33.699Z,8.34
2019-04-07T04:04:16.011Z,8.29
2019-04-07T04:07:00.129Z,8.46
2019-04-07T04:09:49.807Z,8.60
2019-04-07T04:12:21.397Z,8.37
2019-04-07T04:14:55.707Z,8.30
2019-04-07T04:17:25.316Z,8.23
2019-04-07T04:19:55.885Z,8.25
2019-04-07T04:22:26.047Z,8.19
2019-04-07T04:24:56.055Z,8.25
2019-04-07T04:27:25.562Z,8.35
2019-04-07T04:29:55.319Z,8.30
2019-04-07T04:32:25.524Z,8.45
2019-04-07T04:34:55.250Z,8.39
2019-04-07T04:37:37.859Z,8.26
2019-04-07T04:39:56.058Z,8.42
2019-04-07T04:42:26.814Z,8.38
2019-04-07T04:44:56.905Z,8.29
2019-04-07T04:47:27.388Z,8.20
2019-04-07T04:49:57.710Z,8.28
2019-04-07T04:52:27.719Z,8.55
2019-04-07T04:54:57.519Z,8.45
2019-04-07T04:57:27.160Z,8.64
2019-04-07T04:59:56.712Z,8.78
2019-04-07T05:02:27.530Z,8.92
2019-04-07T05:04:57.506Z,8.78
2019-04-07T05:11:16.735Z,8.65
2019-04-07T05:13:26.016Z,8.67
2019-04-07T05:16:04.983Z,8.83
2019-04-07T05:18:35.980Z,8.69
2019-04-07T05:21:08.523Z,8.84
2019-04-07T05:23:38.498Z,8.92
2019-04-07T05:26:10.076Z,9.18
2019-04-07T05:35:06.370Z,9.44
2019-04-07T05:37:38.353Z,9.55
2019-04-07T05:40:11.414Z,9.59
2019-04-07T05:42:51.685Z,9.77
2019-04-07T05:45:21.478Z,9.60
2019-04-07T05:47:52.507Z,9.60
2019-04-07T05:50:22.338Z,9.60
2019-04-07T05:52:51.841Z,9.70
2019-04-07T05:55:23.946Z,9.82
2019-04-07T05:57:53.148Z,9.99
2019-04-07T06:00:23.427Z,9.85
2019-04-07T06:02:53.337Z,9.84
2019-04-07T06:05:22.931Z,10.08
2019-04-07T06:07:52.747Z,10.21
2019-04-07T06:10:27.610Z,10.29
2019-04-07T06:12:55.383Z,10.22
2019-04-07T06:15:25.803Z,10.35
2019-04-07T06:17:58.795Z,10.28
2019-04-07T06:20:26.791Z,10.45
2019-04-07T06:22:56.517Z,10.45
2019-04-07T06:25:27.217Z,10.43
2019-04-07T06:27:57.716Z,10.55
2019-04-07T06:30:30.120Z,10.48
2019-04-07T06:32:59.152Z,10.65
2019-04-07T06:35:28.765Z,10.70
2019-04-07T06:38:04.063Z,10.71
2019-04-07T06:40:30.615Z,10.74
2019-04-07T06:43:06.389Z,10.55
2019-04-07T06:45:46.431Z,10.65
2019-04-07T06:48:16.609Z,10.61
2019-04-07T06:50:54.569Z,10.96
2019-04-07T06:53:35.673Z,10.75
2019-04-07T06:56:12.950Z,10.69
2019-04-07T06:58:53.259Z,10.62
2019-04-07T07:01:30.715Z,10.77
2019-04-07T07:04:10.885Z,10.77
2019-04-07T07:06:56.870Z,11.13
2019-04-07T07:09:28.845Z,10.88
2019-04-07T07:12:22.701Z,10.96
2019-04-07T07:14:52.774Z,11.14
2019-04-07T07:17:33.191Z,11.22
2019-04-07T07:20:07.293Z,11.18
2019-04-07T07:22:40.267Z,11.30
2019-04-07T07:25:12.401Z,11.53
2019-04-07T07:27:43.102Z,11.49
2019-04-07T07:30:15.166Z,11.61
2019-04-07T07:32:44.283Z,11.37
2019-04-07T07:35:15.317Z,11.41
2019-04-07T07:37:45.529Z,11.50
2019-04-07T07:40:17.945Z,11.83
2019-04-07T07:42:49.035Z,11.85
2019-04-07T07:45:18.666Z,11.89
2019-04-07T07:47:51.333Z,12.13
2019-04-07T07:50:20.141Z,12.44
2019-04-07T07:52:53.407Z,12.48
2019-04-07T07:55:21.946Z,12.44
2019-04-07T07:57:56.776Z,12.57
2019-04-07T08:00:23.607Z,12.57
2019-04-07T08:02:53.817Z,12.60
2019-04-07T08:05:24.832Z,12.41
2019-04-07T08:07:55.172Z,12.45
2019-04-07T08:10:25.413Z,12.56
2019-04-07T08:12:56.328Z,12.92
2019-04-07T08:15:30.995Z,12.97
2019-04-07T08:17:57.383Z,12.53
2019-04-07T08:20:30.589Z,12.68
2019-04-07T08:23:00.667Z,13.04
2019-04-07T08:25:30.362Z,13.15
2019-04-07T08:28:02.189Z,13.13
2019-04-07T08:30:31.797Z,13.29
2019-04-07T08:33:02.402Z,13.46
2019-04-07T08:35:37.783Z,13.56
2019-04-07T08:38:05.982Z,13.38
2019-04-07T08:40:38.141Z,13.63
2019-04-07T08:43:08.287Z,13.86
2019-04-07T08:45:38.189Z,14.08
2019-04-07T08:48:08.969Z,13.97
2019-04-07T08:50:38.664Z,14.17
2019-04-07T08:53:14.099Z,14.44
2019-04-07T08:55:47.772Z,14.38
2019-04-07T08:58:24.893Z,14.31
2019-04-07T09:00:51.601Z,14.11
2019-04-07T09:03:20.826Z,14.39
2019-04-07T09:05:51.392Z,14.87
2019-04-07T09:08:21.034Z,14.93
2019-04-07T09:11:04.639Z,14.70
2019-04-07T09:13:34.594Z,14.64
2019-04-07T09:16:06.091Z,14.79
2019-04-07T09:19:02.538Z,14.91
2019-04-07T09:21:47.546Z,14.97
2019-04-07T09:24:32.770Z,14.98
2019-04-07T09:27:23.398Z,15.11
2019-04-07T09:30:01.434Z,15.35
2019-04-07T09:32:43.840Z,15.45
2019-04-07T09:35:33.382Z,15.47
2019-04-07T09:38:11.014Z,15.39
2019-04-07T09:40:58.557Z,15.46
2019-04-07T09:43:30.622Z,15.38
2019-04-07T09:46:05.041Z,15.22
2019-04-07T09:48:52.743Z,15.77
2019-04-07T09:51:24.373Z,15.76
2019-04-07T09:54:01.717Z,15.76
2019-04-07T09:56:33.691Z,15.78
2019-04-07T09:59:07.929Z,15.67
2019-04-07T10:01:54.183Z,15.76
2019-04-07T10:04:42.277Z,15.88
2019-04-07T10:07:30.494Z,15.89
2019-04-07T10:10:13.943Z,16.02
2019-04-07T10:12:58.361Z,16.09
2019-04-07T10:15:32.855Z,16.26
2019-04-07T10:18:07.543Z,16.28
2019-04-07T10:20:46.706Z,16.25
2019-04-07T10:23:24.226Z,16.31
2019-04-07T10:25:56.120Z,16.59
2019-04-07T10:28:41.810Z,16.61
2019-04-07T10:31:18.421Z,16.68
2019-04-07T10:34:04.001Z,17.36
2019-04-07T10:36:44.971Z,17.69
2019-04-07T10:39:19.874Z,17.80
2019-04-07T10:41:56.924Z,17.92
2019-04-07T10:44:34.179Z,17.84
2019-04-07T10:47:21.653Z,17.66
2019-04-07T10:50:07.497Z,17.69
2019-04-07T10:52:54.516Z,17.80
2019-04-07T10:55:28.926Z,17.90
2019-04-07T10:58:09.139Z,17.56
2019-04-07T11:00:53.831Z,17.30
2019-04-07T11:03:35.101Z,16.94
2019-04-07T11:06:07.309Z,17.11
2019-04-07T11:08:55.534Z,17.34
2019-04-07T11:11:32.549Z,17.53
2019-04-07T11:14:06.890Z,17.37
2019-04-07T11:16:54.928Z,17.43
2019-04-07T11:19:29.270Z,17.72
2019-04-07T11:22:03.127Z,18.01
2019-04-07T11:24:49.630Z,17.93
2019-04-07T11:27:21.134Z,17.97
2019-04-07T11:30:01.574Z,18.00
2019-04-07T11:32:32.872Z,17.93
2019-04-07T11:35:21.123Z,17.53
2019-04-07T11:37:55.395Z,17.18
2019-04-07T11:40:49.602Z,17.25
2019-04-07T11:43:17.712Z,17.36
2019-04-07T11:45:58.429Z,17.30
2019-04-07T11:48:28.005Z,17.22
2019-04-07T11:51:03.314Z,17.23
2019-04-07T11:53:41.489Z,17.11
2019-04-07T11:56:29.647Z,17.12
2019-04-07T11:59:08.833Z,17.14
2019-04-07T12:01:43.667Z,17.22
2019-04-07T12:04:28.345Z,16.97
2019-04-07T12:07:19.098Z,16.91
2019-04-07T12:10:09.720Z,16.98
2019-04-07T12:12:44.108Z,16.93
2019-04-07T12:15:22.715Z,16.99
2019-04-07T12:17:55.984Z,17.00
2019-04-07T12:20:45.175Z,16.88
2019-04-07T12:23:27.464Z,16.69
2019-04-07T12:26:02.144Z,16.60
2019-04-07T12:28:35.571Z,16.48
2019-04-07T12:31:13.860Z,16.38
2019-04-07T12:34:14.362Z,16.50
2019-04-07T12:36:56.234Z,16.47
2019-04-07T12:39:33.691Z,16.47
2019-04-07T12:42:10.201Z,16.45
2019-04-07T12:44:44.120Z,16.34
2019-04-07T12:47:41.048Z,16.43
2019-04-07T12:50:28.717Z,16.31
2019-04-07T12:53:16.930Z,16.38
2019-04-07T12:56:03.547Z,16.39
2019-04-07T12:58:35.579Z,16.56
2019-04-07T13:01:19.298Z,16.55
2019-04-07T13:04:04.670Z,16.57
2019-04-07T13:06:45.208Z,16.48
2019-04-07T13:09:32.041Z,16.48
2019-04-07T13:12:10.033Z,16.54
2019-04-07T13:14:56.568Z,16.66
2019-04-07T13:17:34.560Z,16.75
2019-04-07T13:20:18.994Z,16.65
2019-04-07T13:23:06.030Z,16.65
2019-04-07T13:25:43.436Z,16.65
2019-04-07T13:28:30.604Z,16.75
2019-04-07T13:31:04.950Z,16.76
2019-04-07T13:33:42.417Z,16.83
2019-04-07T13:36:20.345Z,16.63
2019-04-07T13:39:00.915Z,16.66
2019-04-07T13:41:44.948Z,16.64
2019-04-07T13:44:16.185Z,16.62
2019-04-07T13:47:06.383Z,16.69
2019-04-07T13:49:55.277Z,16.69
2019-04-07T13:52:41.945Z,16.74
2019-04-07T13:55:30.575Z,16.68
2019-04-07T14:07:16.929Z,16.28
2019-04-07T14:10:04.394Z,16.62
2019-04-07T14:12:55.633Z,16.63
2019-04-07T14:15:27.086Z,16.70
2019-04-07T14:18:01.210Z,16.50
2019-04-07T14:20:40.478Z,16.47
2019-04-07T14:23:12.244Z,16.43
2019-04-07T14:25:48.262Z,16.43
2019-04-07T14:28:20.113Z,16.42
2019-04-07T14:30:52.145Z,16.30
2019-04-07T14:33:39.242Z,16.20
2019-04-07T14:36:17.221Z,16.25
2019-04-07T14:38:48.567Z,16.33
2019-04-07T14:41:35.707Z,16.28
2019-04-07T14:44:10.128Z,16.24
2019-04-07T14:46:47.663Z,16.18
2019-04-07T14:49:34.161Z,16.00
2019-04-07T14:52:11.257Z,16.09
2019-04-07T14:54:56.173Z,16.07
2019-04-07T14:57:31.376Z,15.90
2019-04-07T15:00:15.270Z,15.89
2019-04-07T15:05:56.326Z,15.80
2019-04-07T15:08:36.994Z,15.75
2019-04-07T15:11:23.759Z,15.69
2019-04-07T15:13:56.916Z,15.60
2019-04-07T15:16:26.311Z,15.43
2019-04-07T15:19:06.560Z,15.48
2019-04-07T15:21:37.757Z,15.29
2019-04-07T15:24:11.609Z,15.25
2019-04-07T15:26:41.425Z,15.11
2019-04-07T15:29:11.175Z,15.23
2019-04-07T15:31:41.883Z,15.15
2019-04-07T15:34:14.137Z,15.11
2019-04-07T15:36:43.987Z,15.09
2019-04-07T15:39:13.826Z,15.14
2019-04-07T15:41:44.482Z,15.08
2019-04-07T15:44:18.148Z,15.10
2019-04-07T15:46:52.378Z,15.09
2019-04-07T15:49:23.501Z,14.97
2019-04-07T15:51:52.630Z,14.96
2019-04-07T15:54:24.208Z,14.97
2019-04-07T15:56:54.028Z,14.78
2019-04-07T15:59:24.773Z,14.77
2019-04-07T16:01:56.191Z,14.73
2019-04-07T16:04:28.400Z,14.71
2019-04-07T16:06:57.753Z,14.60
2019-04-07T16:09:36.056Z,14.53
2019-04-07T16:12:00.290Z,14.58
2019-04-07T16:14:30.960Z,14.53
2019-04-07T16:17:04.139Z,14.53
2019-04-07T16:19:39.688Z,14.36
2019-04-07T16:22:05.018Z,14.40
2019-04-07T16:24:34.819Z,14.25
2019-04-07T16:27:06.715Z,14.23
2019-04-07T16:29:36.478Z,14.29
2019-04-07T16:32:06.430Z,14.19
2019-04-07T16:34:42.786Z,14.28
2019-04-07T16:37:15.730Z,14.21
2019-04-07T16:39:53.148Z,14.07
2019-04-07T16:42:22.941Z,13.94
2019-04-07T16:44:53.756Z,13.95
2019-04-07T16:47:35.841Z,13.80
2019-04-07T16:50:51.116Z,13.88
2019-04-07T16:53:52.086Z,13.90
2019-04-07T16:59:36.647Z,13.71
2019-04-07T17:02:06.736Z,13.67
2019-04-07T17:04:39.190Z,13.69
2019-04-07T17:07:15.289Z,13.58
2019-04-07T17:09:48.862Z,13.61
2019-04-07T17:12:20.406Z,13.42
2019-04-07T17:14:54.311Z,13.53
2019-04-07T17:17:25.038Z,13.36
2019-04-07T17:19:57.349Z,13.49
2019-04-07T17:22:27.225Z,13.37
2019-04-07T17:25:00.337Z,13.27
2019-04-07T17:27:32.777Z,13.22
2019-04-07T17:30:05.374Z,13.23
2019-04-07T17:32:39.149Z,13.16
2019-04-07T17:35:17.816Z,13.17
2019-04-07T17:37:48.220Z,13.21
2019-04-07T17:40:19.596Z,13.22
2019-04-07T17:42:52.771Z,13.07
2019-04-07T17:45:23.567Z,13.00
2019-04-07T17:48:05.568Z,12.92
2019-04-07T17:50:34.256Z,12.93
2019-04-07T17:53:15.944Z,13.04
2019-04-07T17:56:00.159Z,13.00
2019-04-07T17:58:47.810Z,12.90
2019-04-07T18:01:21.677Z,13.01
2019-04-07T18:04:01.356Z,12.81
2019-04-07T18:06:49.474Z,12.56
2019-04-07T18:09:29.835Z,12.94
2019-04-07T18:12:12.807Z,12.93
2019-04-07T18:14:43.740Z,12.83
2019-04-07T18:17:21.530Z,12.86
2019-04-07T18:19:59.248Z,12.79
2019-04-07T18:22:47.715Z,12.83
2019-04-07T18:25:33.083Z,12.86
2019-04-07T18:28:04.085Z,12.70
2019-04-07T18:30:45.183Z,12.65
2019-04-07T18:33:33.559Z,12.70
2019-04-07T18:36:11.990Z,12.73
2019-04-07T18:39:01.148Z,12.68
2019-04-07T18:41:43.602Z,12.65
2019-04-07T18:44:27.258Z,12.70
2019-04-07T18:47:01.482Z,12.57
2019-04-07T18:49:36.542Z,12.72
2019-04-07T18:52:20.025Z,12.58
2019-04-07T18:55:08.983Z,12.55
2019-04-07T18:57:41.660Z,12.58
2019-04-07T19:00:13.699Z,12.46
2019-04-07T19:02:46.179Z,12.38
2019-04-07T19:05:25.140Z,12.48
2019-04-07T19:08:12.827Z,12.40
2019-04-07T19:11:10.391Z,12.58
2019-04-07T19:14:01.281Z,12.48
2019-04-07T19:16:27.957Z,12.39
2019-04-07T19:19:08.350Z,12.37
2019-04-07T19:21:43.452Z,12.39
2019-04-07T19:24:19.266Z,12.28
2019-04-07T19:27:11.990Z,12.28
2019-04-07T19:29:46.060Z,12.33
2019-04-07T19:32:34.132Z,12.38
2019-04-07T19:35:23.187Z,12.39
2019-04-07T19:38:07.570Z,12.23
2019-04-07T19:40:47.832Z,12.27
2019-04-07T19:43:25.110Z,12.33
2019-04-07T19:46:00.537Z,12.25
2019-04-07T19:48:50.412Z,12.25
2019-04-07T19:51:22.597Z,12.12
2019-04-07T19:53:54.286Z,12.15
2019-04-07T19:56:37.544Z,12.18
2019-04-07T19:59:14.611Z,12.11
2019-04-07T20:01:48.840Z,12.14
2019-04-07T20:04:22.936Z,12.15
2019-04-07T20:06:57.899Z,12.08
2019-04-07T20:09:44.104Z,12.07
2019-04-07T20:12:14.994Z,12.08
2019-04-07T20:15:08.871Z,12.07
2019-04-07T20:17:35.196Z,12.00
2019-04-07T20:20:09.999Z,12.11
2019-04-07T20:22:44.070Z,11.99
2019-04-07T20:25:27.242Z,11.96
2019-04-07T20:27:59.428Z,12.05
2019-04-07T20:30:49.542Z,11.91
2019-04-07T20:33:29.928Z,12.09
2019-04-07T20:36:04.925Z,11.87
2019-04-07T20:38:36.066Z,11.89
2019-04-07T20:41:23.959Z,11.93
2019-04-07T20:43:59.054Z,11.98
2019-04-07T20:46:30.493Z,11.95
2019-04-07T20:49:13.689Z,11.94
2019-04-07T20:52:03.003Z,11.72
2019-04-07T20:54:47.617Z,11.69
2019-04-07T20:57:37.251Z,11.66
2019-04-07T21:00:09.182Z,11.71
2019-04-07T21:03:06.482Z,11.82
2019-04-07T21:05:29.406Z,11.56
2019-04-07T21:08:17.835Z,11.68
2019-04-07T21:10:58.096Z,11.82
2019-04-07T21:13:39.590Z,11.72
2019-04-07T21:16:29.553Z,11.80
2019-04-07T21:19:12.389Z,11.62
2019-04-07T21:21:45.474Z,11.68
2019-04-07T21:24:20.027Z,11.55
2019-04-07T21:26:51.974Z,11.51
2019-04-07T21:29:35.152Z,11.56
2019-04-07T21:32:08.871Z,11.38
2019-04-07T21:34:45.028Z,11.41
2019-04-07T21:37:28.469Z,11.47
2019-04-07T21:40:07.557Z,11.36
2019-04-07T21:42:38.658Z,11.32
2019-04-07T21:45:13.413Z,11.39
2019-04-07T21:47:48.200Z,11.26
2019-04-07T21:50:22.319Z,11.28
2019-04-07T21:52:55.312Z,11.25
2019-04-07T21:55:28.848Z,11.55
2019-04-07T21:58:00.868Z,11.27
2019-04-07T22:00:48.922Z,11.20
2019-04-07T22:03:24.103Z,11.28
2019-04-07T22:05:59.441Z,11.15
2019-04-07T22:08:30.762Z,11.10
2019-04-07T22:11:00.344Z,11.04
2019-04-07T22:13:32.857Z,11.09
2019-04-07T22:16:03.879Z,10.98
2019-04-07T22:18:32.493Z,10.88
2019-04-07T22:21:02.240Z,11.32
2019-04-07T22:23:32.599Z,11.23
2019-04-07T22:26:02.556Z,11.20
2019-04-07T22:28:33.209Z,11.34
2019-04-07T22:31:04.484Z,11.21
2019-04-07T22:33:34.968Z,11.19
2019-04-07T22:36:04.627Z,11.12
2019-04-07T22:38:34.217Z,10.97
2019-04-07T22:41:06.773Z,10.91
2019-04-07T22:43:35.490Z,10.93
2019-04-07T22:46:12.691Z,10.93
2019-04-07T22:48:36.492Z,11.11
2019-04-07T22:51:09.983Z,10.98
2019-04-07T22:53:37.427Z,10.85
2019-04-07T22:56:07.925Z,10.85
2019-04-07T22:58:38.303Z,10.73
2019-04-07T23:01:08.978Z,10.73
2019-04-07T23:03:39.111Z,10.77
2019-04-07T23:06:09.406Z,10.65
2019-04-07T23:08:39.073Z,10.76
2019-04-07T23:11:08.495Z,10.61
2019-04-07T23:13:37.941Z,10.54
2019-04-07T23:16:13.497Z,10.68
2019-04-07T23:18:38.723Z,10.62
2019-04-07T23:21:08.285Z,10.61
2019-04-07T23:23:37.846Z,10.89
2019-04-07T23:26:07.565Z,10.89
2019-04-07T23:28:37.094Z,10.87
2019-04-07T23:31:07.520Z,10.70
2019-04-07T23:33:38.696Z,10.57
2019-04-07T23:36:08.237Z,10.54
2019-04-07T23:38:37.867Z,10.67
2019-04-07T23:41:07.373Z,10.62
2019-04-07T23:43:37.631Z,10.57
2019-04-07T23:46:19.432Z,10.94
2019-04-07T23:48:40.245Z,10.74
2019-04-07T23:51:10.231Z,10.48
2019-04-07T23:54:11.303Z,10.40
2019-04-07T23:56:43.488Z,10.47
2019-04-07T23:59:14.661Z,10.34
